sensor_id;sensor_type;location;lat;lon;timestamp;pressure;altitude;pressure_sealevel;temperature;humidity
47897;BME280;39629;51.400;5.494;2023-04-24T00:01:10;99873.03;;;8.74;100.00
47897;BME280;39629;51.400;5.494;2023-04-24T00:06:14;99873.91;;;8.71;100.00
47897;BME280;39629;51.400;5.494;2023-04-24T00:11:17;99882.69;;;8.68;100.00
47897;BME280;39629;51.400;5.494;2023-04-24T00:16:18;99884.44;;;8.68;100.00
47897;BME280;39629;51.400;5.494;2023-04-24T00:21:21;99889.75;;;8.65;100.00
47897;BME280;39629;51.400;5.494;2023-04-24T00:26:25;99888.88;;;8.63;100.00
47897;BME280;39629;51.400;5.494;2023-04-24T00:31:27;99892.38;;;8.60;100.00
47897;BME280;39629;51.400;5.494;2023-04-24T00:36:30;99893.28;;;8.58;100.00
47897;BME280;39629;51.400;5.494;2023-04-24T00:41:32;99892.41;;;8.57;100.00
47897;BME280;39629;51.400;5.494;2023-04-24T00:46:34;99893.34;;;8.51;100.00
47897;BME280;39629;51.400;5.494;2023-04-24T00:51:38;99891.66;;;8.47;100.00
47897;BME280;39629;51.400;5.494;2023-04-24T00:56:41;99890.78;;;8.48;100.00
47897;BME280;39629;51.400;5.494;2023-04-24T01:01:44;99894.31;;;8.44;100.00
47897;BME280;39629;51.400;5.494;2023-04-24T01:06:48;99895.13;;;8.46;100.00
47897;BME280;39629;51.400;5.494;2023-04-24T01:11:51;99896.97;;;8.41;100.00
47897;BME280;39629;51.400;5.494;2023-04-24T01:16:52;99892.59;;;8.39;100.00
47897;BME280;39629;51.400;5.494;2023-04-24T01:21:58;99889.97;;;8.40;100.00
47897;BME280;39629;51.400;5.494;2023-04-24T01:27:02;99886.47;;;8.41;100.00
47897;BME280;39629;51.400;5.494;2023-04-24T01:32:04;99886.44;;;8.44;100.00
47897;BME280;39629;51.400;5.494;2023-04-24T01:37:06;99888.16;;;8.45;100.00
47897;BME280;39629;51.400;5.494;2023-04-24T01:42:09;99887.31;;;8.43;100.00
47897;BME280;39629;51.400;5.494;2023-04-24T01:47:11;99890.78;;;8.44;100.00
47897;BME280;39629;51.400;5.494;2023-04-24T01:52:12;99890.81;;;8.41;100.00
47897;BME280;39629;51.400;5.494;2023-04-24T01:57:16;99897.81;;;8.42;100.00
47897;BME280;39629;51.400;5.494;2023-04-24T02:02:18;99894.31;;;8.43;100.00
47897;BME280;39629;51.400;5.494;2023-04-24T02:07:21;99894.31;;;8.40;100.00
47897;BME280;39629;51.400;5.494;2023-04-24T02:12:24;99896.06;;;8.42;100.00
47897;BME280;39629;51.400;5.494;2023-04-24T02:17:26;99896.06;;;8.41;100.00
47897;BME280;39629;51.400;5.494;2023-04-24T02:22:28;99903.94;;;8.39;100.00
47897;BME280;39629;51.400;5.494;2023-04-24T02:27:30;99898.72;;;8.39;100.00
47897;BME280;39629;51.400;5.494;2023-04-24T02:32:32;99893.47;;;8.39;100.00
47897;BME280;39629;51.400;5.494;2023-04-24T02:37:34;99898.75;;;8.36;100.00
47897;BME280;39629;51.400;5.494;2023-04-24T02:42:37;99884.75;;;8.39;100.00
47897;BME280;39629;51.400;5.494;2023-04-24T02:47:38;99883.84;;;8.40;100.00
47897;BME280;39629;51.400;5.494;2023-04-24T02:52:40;99889.94;;;8.42;100.00
47897;BME280;39629;51.400;5.494;2023-04-24T02:57:43;99887.38;;;8.39;100.00
47897;BME280;39629;51.400;5.494;2023-04-24T03:02:44;99882.13;;;8.35;100.00
47897;BME280;39629;51.400;5.494;2023-04-24T03:07:46;99888.28;;;8.33;100.00
47897;BME280;39629;51.400;5.494;2023-04-24T03:12:49;99895.25;;;8.34;100.00
47897;BME280;39629;51.400;5.494;2023-04-24T03:17:52;99890.03;;;8.32;100.00
47897;BME280;39629;51.400;5.494;2023-04-24T03:22:54;99891.81;;;8.29;100.00
47897;BME280;39629;51.400;5.494;2023-04-24T03:27:58;99892.69;;;8.29;100.00
47897;BME280;39629;51.400;5.494;2023-04-24T03:33:08;99890.94;;;8.27;100.00
47897;BME280;39629;51.400;5.494;2023-04-24T03:38:14;99902.31;;;8.26;100.00
47897;BME280;39629;51.400;5.494;2023-04-24T03:43:31;99889.19;;;8.27;100.00
47897;BME280;39629;51.400;5.494;2023-04-24T03:48:34;99897.97;;;8.25;100.00
47897;BME280;39629;51.400;5.494;2023-04-24T03:53:36;99891.84;;;8.23;100.00
47897;BME280;39629;51.400;5.494;2023-04-24T03:58:40;99893.59;;;8.24;100.00
47897;BME280;39629;51.400;5.494;2023-04-24T04:03:43;99896.25;;;8.22;100.00
47897;BME280;39629;51.400;5.494;2023-04-24T04:08:44;99889.31;;;8.16;100.00
47897;BME280;39629;51.400;5.494;2023-04-24T04:13:48;99891.06;;;8.13;100.00
47897;BME280;39629;51.400;5.494;2023-04-24T04:18:53;99894.59;;;8.07;100.00
47897;BME280;39629;51.400;5.494;2023-04-24T04:23:55;99898.09;;;8.06;100.00
47897;BME280;39629;51.400;5.494;2023-04-24T04:29:06;99898.19;;;7.98;100.00
47897;BME280;39629;51.400;5.494;2023-04-24T04:34:11;99899.06;;;7.96;100.00
47897;BME280;39629;51.400;5.494;2023-04-24T04:39:13;99901.72;;;7.91;100.00
47897;BME280;39629;51.400;5.494;2023-04-24T04:44:29;99900.00;;;7.86;100.00
47897;BME280;39629;51.400;5.494;2023-04-24T04:49:33;99904.41;;;7.80;100.00
47897;BME280;39629;51.400;5.494;2023-04-24T04:54:35;99917.50;;;7.82;100.00
47897;BME280;39629;51.400;5.494;2023-04-24T04:59:38;99914.91;;;7.80;100.00
47897;BME280;39629;51.400;5.494;2023-04-24T05:04:47;99921.84;;;7.81;100.00
47897;BME280;39629;51.400;5.494;2023-04-24T05:09:49;99914.00;;;7.81;100.00
47897;BME280;39629;51.400;5.494;2023-04-24T05:14:53;99924.47;;;7.80;100.00
47897;BME280;39629;51.400;5.494;2023-04-24T05:19:55;99927.13;;;7.75;100.00
47897;BME280;39629;51.400;5.494;2023-04-24T05:24:58;99938.47;;;7.74;100.00
47897;BME280;39629;51.400;5.494;2023-04-24T05:30:12;99945.47;;;7.75;100.00
47897;BME280;39629;51.400;5.494;2023-04-24T05:35:14;99958.59;;;7.71;100.00
47897;BME280;39629;51.400;5.494;2023-04-24T05:40:16;99964.72;;;7.63;100.00
47897;BME280;39629;51.400;5.494;2023-04-24T05:45:19;99972.63;;;7.56;100.00
47897;BME280;39629;51.400;5.494;2023-04-24T05:50:20;99971.78;;;7.49;100.00
47897;BME280;39629;51.400;5.494;2023-04-24T05:55:22;99965.69;;;7.45;100.00
47897;BME280;39629;51.400;5.494;2023-04-24T06:00:26;99967.47;;;7.39;100.00
47897;BME280;39629;51.400;5.494;2023-04-24T06:05:36;99981.44;;;7.36;100.00
47897;BME280;39629;51.400;5.494;2023-04-24T06:10:38;99984.97;;;7.29;100.00
47897;BME280;39629;51.400;5.494;2023-04-24T06:15:43;99991.94;;;7.28;100.00
47897;BME280;39629;51.400;5.494;2023-04-24T06:20:51;100006.75;;;7.31;100.00
47897;BME280;39629;51.400;5.494;2023-04-24T06:25:52;100023.31;;;7.30;100.00
47897;BME280;39629;51.400;5.494;2023-04-24T06:30:55;100024.19;;;7.33;100.00
47897;BME280;39629;51.400;5.494;2023-04-24T06:35:57;100044.25;;;7.39;100.00
47897;BME280;39629;51.400;5.494;2023-04-24T06:40:58;100056.47;;;7.40;100.00
47897;BME280;39629;51.400;5.494;2023-04-24T06:46:01;100062.53;;;7.45;100.00
47897;BME280;39629;51.400;5.494;2023-04-24T06:51:03;100075.63;;;7.45;100.00
47897;BME280;39629;51.400;5.494;2023-04-24T06:56:05;100092.22;;;7.47;100.00
47897;BME280;39629;51.400;5.494;2023-04-24T07:01:08;100098.31;;;7.49;100.00
47897;BME280;39629;51.400;5.494;2023-04-24T07:06:10;100116.66;;;7.53;100.00
47897;BME280;39629;51.400;5.494;2023-04-24T07:11:11;100141.97;;;7.55;100.00
47897;BME280;39629;51.400;5.494;2023-04-24T07:16:14;100149.78;;;7.54;100.00
47897;BME280;39629;51.400;5.494;2023-04-24T07:21:16;100169.88;;;7.56;100.00
47897;BME280;39629;51.400;5.494;2023-04-24T07:26:17;100178.59;;;7.60;100.00
47897;BME280;39629;51.400;5.494;2023-04-24T07:31:20;100182.97;;;7.62;100.00
47897;BME280;39629;51.400;5.494;2023-04-24T07:36:22;100212.66;;;7.60;100.00
47897;BME280;39629;51.400;5.494;2023-04-24T07:41:24;100217.88;;;7.54;100.00
47897;BME280;39629;51.400;5.494;2023-04-24T07:46:29;100240.59;;;7.47;100.00
47897;BME280;39629;51.400;5.494;2023-04-24T07:51:31;100264.16;;;7.48;100.00
47897;BME280;39629;51.400;5.494;2023-04-24T07:56:33;100283.34;;;7.50;100.00
47897;BME280;39629;51.400;5.494;2023-04-24T08:01:40;100290.34;;;7.50;100.00
47897;BME280;39629;51.400;5.494;2023-04-24T08:06:41;100293.81;;;7.60;100.00
47897;BME280;39629;51.400;5.494;2023-04-24T08:11:43;100306.91;;;7.60;100.00
47897;BME280;39629;51.400;5.494;2023-04-24T08:16:46;100317.38;;;7.66;100.00
47897;BME280;39629;51.400;5.494;2023-04-24T08:21:48;100328.75;;;7.68;100.00
47897;BME280;39629;51.400;5.494;2023-04-24T08:26:49;100351.44;;;7.66;100.00
47897;BME280;39629;51.400;5.494;2023-04-24T08:31:53;100360.19;;;7.70;100.00
47897;BME280;39629;51.400;5.494;2023-04-24T08:36:55;100372.41;;;7.78;100.00
47897;BME280;39629;51.400;5.494;2023-04-24T08:41:57;100366.31;;;7.93;100.00
47897;BME280;39629;51.400;5.494;2023-04-24T08:47:07;100374.19;;;8.01;100.00
47897;BME280;39629;51.400;5.494;2023-04-24T08:52:09;100381.16;;;8.16;100.00
47897;BME280;39629;51.400;5.494;2023-04-24T08:57:14;100390.72;;;8.46;100.00
47897;BME280;39629;51.400;5.494;2023-04-24T09:02:17;100408.22;;;8.58;100.00
47897;BME280;39629;51.400;5.494;2023-04-24T09:07:19;100406.47;;;8.49;100.00
47897;BME280;39629;51.400;5.494;2023-04-24T09:12:23;100431.81;;;8.04;100.00
47897;BME280;39629;51.400;5.494;2023-04-24T09:17:27;100432.69;;;7.89;100.00
47897;BME280;39629;51.400;5.494;2023-04-24T09:22:29;100444.94;;;8.20;100.00
47897;BME280;39629;51.400;5.494;2023-04-24T09:27:31;100453.66;;;8.17;100.00
47897;BME280;39629;51.400;5.494;2023-04-24T09:32:34;100460.63;;;8.91;100.00
47897;BME280;39629;51.400;5.494;2023-04-24T09:37:37;100470.25;;;8.82;100.00
47897;BME280;39629;51.400;5.494;2023-04-24T09:42:38;100486.91;;;8.69;100.00
47897;BME280;39629;51.400;5.494;2023-04-24T09:47:42;100485.16;;;8.52;100.00
47897;BME280;39629;51.400;5.494;2023-04-24T09:52:45;100495.63;;;8.46;100.00
47897;BME280;39629;51.400;5.494;2023-04-24T09:57:48;100510.50;;;8.58;100.00
47897;BME280;39629;51.400;5.494;2023-04-24T10:02:54;100507.00;;;8.89;100.00
47897;BME280;39629;51.400;5.494;2023-04-24T10:07:57;100509.47;;;9.50;100.00
47897;BME280;39629;51.400;5.494;2023-04-24T10:12:59;100509.44;;;9.63;100.00
47897;BME280;39629;51.400;5.494;2023-04-24T10:18:04;100528.81;;;9.28;100.00
47897;BME280;39629;51.400;5.494;2023-04-24T10:23:06;100535.00;;;8.96;100.00
47897;BME280;39629;51.400;5.494;2023-04-24T10:28:09;100537.59;;;9.11;100.00
47897;BME280;39629;51.400;5.494;2023-04-24T10:33:13;100534.91;;;9.37;100.00
47897;BME280;39629;51.400;5.494;2023-04-24T10:38:18;100544.53;;;9.40;100.00
47897;BME280;39629;51.400;5.494;2023-04-24T10:43:24;100539.25;;;9.54;100.00
47897;BME280;39629;51.400;5.494;2023-04-24T10:48:27;100552.38;;;9.49;100.00
47897;BME280;39629;51.400;5.494;2023-04-24T10:53:30;100569.94;;;9.35;100.00
47897;BME280;39629;51.400;5.494;2023-04-24T10:58:37;100557.56;;;9.74;100.00
47897;BME280;39629;51.400;5.494;2023-04-24T11:03:50;100569.88;;;9.60;100.00
47897;BME280;39629;51.400;5.494;2023-04-24T11:09:02;100583.06;;;9.44;100.00
47897;BME280;39629;51.400;5.494;2023-04-24T11:14:05;100596.19;;;9.47;100.00
47897;BME280;39629;51.400;5.494;2023-04-24T11:19:10;100590.72;;;10.06;100.00
47897;BME280;39629;51.400;5.494;2023-04-24T11:24:23;100589.91;;;9.84;100.00
47897;BME280;39629;51.400;5.494;2023-04-24T11:29:38;100605.63;;;9.98;100.00
47897;BME280;39629;51.400;5.494;2023-04-24T11:34:45;100609.19;;;9.81;100.00
47897;BME280;39629;51.400;5.494;2023-04-24T11:39:50;100616.81;;;10.43;100.00
47897;BME280;39629;51.400;5.494;2023-04-24T11:44:52;100629.19;;;10.26;100.00
47897;BME280;39629;51.400;5.494;2023-04-24T11:49:56;100628.41;;;10.05;100.00
47897;BME280;39629;51.400;5.494;2023-04-24T11:54:57;100637.03;;;10.36;100.00
47897;BME280;39629;51.400;5.494;2023-04-24T11:59:59;100649.41;;;10.13;100.00
47897;BME280;39629;51.400;5.494;2023-04-24T12:05:02;100641.41;;;10.36;100.00
47897;BME280;39629;51.400;5.494;2023-04-24T12:10:05;100658.81;;;10.60;100.00
47897;BME280;39629;51.400;5.494;2023-04-24T12:15:07;100660.44;;;10.83;100.00
47897;BME280;39629;51.400;5.494;2023-04-24T12:20:12;100655.22;;;10.73;100.00
47897;BME280;39629;51.400;5.494;2023-04-24T12:25:14;100669.06;;;11.08;100.00
47897;BME280;39629;51.400;5.494;2023-04-24T12:30:16;100665.72;;;10.84;100.00
47897;BME280;39629;51.400;5.494;2023-04-24T12:35:22;100672.66;;;10.95;100.00
47897;BME280;39629;51.400;5.494;2023-04-24T12:40:25;100680.72;;;10.67;100.00
47897;BME280;39629;51.400;5.494;2023-04-24T12:45:26;100687.59;;;10.94;100.00
47897;BME280;39629;51.400;5.494;2023-04-24T12:50:30;100689.38;;;10.81;100.00
47897;BME280;39629;51.400;5.494;2023-04-24T12:55:32;100698.13;;;10.89;100.00
47897;BME280;39629;51.400;5.494;2023-04-24T13:00:34;100693.91;;;10.61;100.00
47897;BME280;39629;51.400;5.494;2023-04-24T13:05:37;100698.13;;;10.89;100.00
47897;BME280;39629;51.400;5.494;2023-04-24T13:10:39;100702.59;;;10.75;100.00
47897;BME280;39629;51.400;5.494;2023-04-24T13:15:41;100697.38;;;11.82;100.00
47897;BME280;39629;51.400;5.494;2023-04-24T13:20:43;100701.13;;;11.58;100.00
47897;BME280;39629;51.400;5.494;2023-04-24T13:25:47;100705.03;;;12.07;100.00
47897;BME280;39629;51.400;5.494;2023-04-24T13:30:49;100702.81;;;11.67;100.00
47897;BME280;39629;51.400;5.494;2023-04-24T13:35:52;100724.25;;;11.23;100.00
47897;BME280;39629;51.400;5.494;2023-04-24T13:40:54;100716.56;;;10.94;100.00
47897;BME280;39629;51.400;5.494;2023-04-24T13:45:55;100714.88;;;10.76;100.00
47897;BME280;39629;51.400;5.494;2023-04-24T13:50:58;100706.94;;;10.90;100.00
47897;BME280;39629;51.400;5.494;2023-04-24T13:55:59;100712.09;;;11.05;100.00
47897;BME280;39629;51.400;5.494;2023-04-24T14:01:01;100711.91;;;11.30;100.00
47897;BME280;39629;51.400;5.494;2023-04-24T14:06:05;100718.22;;;11.11;100.00
47897;BME280;39629;51.400;5.494;2023-04-24T14:11:07;100719.63;;;11.50;100.00
47897;BME280;39629;51.400;5.494;2023-04-24T14:16:09;100719.84;;;11.25;100.00
47897;BME280;39629;51.400;5.494;2023-04-24T14:21:12;100713.63;;;11.34;100.00
47897;BME280;39629;51.400;5.494;2023-04-24T14:26:14;100719.03;;;11.19;100.00
47897;BME280;39629;51.400;5.494;2023-04-24T14:31:15;100733.44;;;10.42;100.00
47897;BME280;39629;51.400;5.494;2023-04-24T14:36:18;100739.59;;;10.39;100.00
47897;BME280;39629;51.400;5.494;2023-04-24T14:41:20;100741.41;;;10.25;100.00
47897;BME280;39629;51.400;5.494;2023-04-24T14:46:21;100745.91;;;9.72;100.00
47897;BME280;39629;51.400;5.494;2023-04-24T14:51:24;100745.00;;;10.01;100.00
47897;BME280;39629;51.400;5.494;2023-04-24T14:56:27;100750.06;;;10.56;100.00
47897;BME280;39629;51.400;5.494;2023-04-24T15:01:29;100747.31;;;10.78;100.00
47897;BME280;39629;51.400;5.494;2023-04-24T15:06:32;100740.31;;;10.74;100.00
47897;BME280;39629;51.400;5.494;2023-04-24T15:11:33;100737.56;;;11.00;100.00
47897;BME280;39629;51.400;5.494;2023-04-24T15:16:35;100744.63;;;10.92;100.00
47897;BME280;39629;51.400;5.494;2023-04-24T15:21:38;100739.28;;;11.06;100.00
47897;BME280;39629;51.400;5.494;2023-04-24T15:26:41;100732.34;;;10.96;100.00
47897;BME280;39629;51.400;5.494;2023-04-24T15:31:43;100724.25;;;11.25;100.00
47897;BME280;39629;51.400;5.494;2023-04-24T15:36:46;100734.81;;;11.22;100.00
47897;BME280;39629;51.400;5.494;2023-04-24T15:41:47;100737.56;;;11.02;100.00
47897;BME280;39629;51.400;5.494;2023-04-24T15:46:50;100742.06;;;10.86;100.00
47897;BME280;39629;51.400;5.494;2023-04-24T15:51:53;100749.91;;;10.90;100.00
47897;BME280;39629;51.400;5.494;2023-04-24T15:56:55;100747.47;;;10.47;100.00
47897;BME280;39629;51.400;5.494;2023-04-24T16:01:57;100759.66;;;10.67;100.00
47897;BME280;39629;51.400;5.494;2023-04-24T16:07:00;100758.72;;;10.83;100.00
47897;BME280;39629;51.400;5.494;2023-04-24T16:12:02;100746.25;;;11.18;100.00
47897;BME280;39629;51.400;5.494;2023-04-24T16:17:04;100753.50;;;10.69;100.00
47897;BME280;39629;51.400;5.494;2023-04-24T16:22:07;100754.47;;;10.50;100.00
47897;BME280;39629;51.400;5.494;2023-04-24T16:27:08;100759.69;;;10.62;100.00
47897;BME280;39629;51.400;5.494;2023-04-24T16:32:10;100755.97;;;11.06;100.00
47897;BME280;39629;51.400;5.494;2023-04-24T16:37:13;100764.84;;;10.81;100.00
47897;BME280;39629;51.400;5.494;2023-04-24T16:42:15;100774.66;;;10.45;100.00
47897;BME280;39629;51.400;5.494;2023-04-24T16:47:17;100779.09;;;10.29;100.00
47897;BME280;39629;51.400;5.494;2023-04-24T16:52:20;100787.94;;;9.89;100.00
47897;BME280;39629;51.400;5.494;2023-04-24T16:57:22;100787.03;;;9.95;100.00
47897;BME280;39629;51.400;5.494;2023-04-24T17:02:24;100786.16;;;10.10;100.00
47897;BME280;39629;51.400;5.494;2023-04-24T17:07:27;100790.56;;;9.72;100.00
47897;BME280;39629;51.400;5.494;2023-04-24T17:12:28;100785.31;;;9.66;100.00
47897;BME280;39629;51.400;5.494;2023-04-24T17:17:30;100798.44;;;9.44;100.00
47897;BME280;39629;51.400;5.494;2023-04-24T17:22:33;100783.56;;;9.74;100.00
47897;BME280;39629;51.400;5.494;2023-04-24T17:27:34;100801.97;;;9.66;100.00
47897;BME280;39629;51.400;5.494;2023-04-24T17:32:36;100790.56;;;9.52;100.00
47897;BME280;39629;51.400;5.494;2023-04-24T17:37:39;100801.94;;;9.42;100.00
47897;BME280;39629;51.400;5.494;2023-04-24T17:42:40;100792.28;;;9.39;100.00
47897;BME280;39629;51.400;5.494;2023-04-24T17:47:42;100801.06;;;9.29;100.00
47897;BME280;39629;51.400;5.494;2023-04-24T17:52:45;100793.16;;;9.24;100.00
47897;BME280;39629;51.400;5.494;2023-04-24T17:57:46;100805.38;;;9.08;100.00
47897;BME280;39629;51.400;5.494;2023-04-24T18:02:48;100807.97;;;9.03;100.00
47897;BME280;39629;51.400;5.494;2023-04-24T18:07:52;100812.25;;;8.83;100.00
47897;BME280;39629;51.400;5.494;2023-04-24T18:12:54;100812.16;;;8.67;100.00
47897;BME280;39629;51.400;5.494;2023-04-24T18:17:56;100812.16;;;8.60;100.00
47897;BME280;39629;51.400;5.494;2023-04-24T18:22:59;100825.22;;;8.52;100.00
47897;BME280;39629;51.400;5.494;2023-04-24T18:28:00;100823.41;;;8.37;100.00
47897;BME280;39629;51.400;5.494;2023-04-24T18:33:02;100837.31;;;8.24;100.00
47897;BME280;39629;51.400;5.494;2023-04-24T18:38:05;100832.78;;;8.04;100.00
47897;BME280;39629;51.400;5.494;2023-04-24T18:43:07;100835.34;;;7.98;100.00
47897;BME280;39629;51.400;5.494;2023-04-24T18:48:08;100842.16;;;7.74;100.00
47897;BME280;39629;51.400;5.494;2023-04-24T18:53:11;100849.16;;;7.75;100.00
47897;BME280;39629;51.400;5.494;2023-04-24T18:58:16;100849.06;;;7.66;100.00
47897;BME280;39629;51.400;5.494;2023-04-24T19:03:18;100858.56;;;7.55;100.00
47897;BME280;39629;51.400;5.494;2023-04-24T19:08:21;100866.28;;;7.42;100.00
47897;BME280;39629;51.400;5.494;2023-04-24T19:13:22;100869.72;;;7.35;100.00
47897;BME280;39629;51.400;5.494;2023-04-24T19:18:24;100880.84;;;7.15;100.00
47897;BME280;39629;51.400;5.494;2023-04-24T19:23:30;100895.44;;;6.98;100.00
47897;BME280;39629;51.400;5.494;2023-04-24T19:28:35;100898.97;;;6.98;100.00
47897;BME280;39629;51.400;5.494;2023-04-24T19:33:37;100908.44;;;6.90;100.00
47897;BME280;39629;51.400;5.494;2023-04-24T19:38:40;100920.41;;;6.73;100.00
47897;BME280;39629;51.400;5.494;2023-04-24T19:43:42;100917.69;;;6.65;100.00
47897;BME280;39629;51.400;5.494;2023-04-24T19:48:43;100922.81;;;6.59;100.00
47897;BME280;39629;51.400;5.494;2023-04-24T19:53:46;100926.19;;;6.52;100.00
47897;BME280;39629;51.400;5.494;2023-04-24T19:58:48;100923.41;;;6.42;100.00
47897;BME280;39629;51.400;5.494;2023-04-24T20:03:50;100917.19;;;6.34;100.00
47897;BME280;39629;51.400;5.494;2023-04-24T20:08:53;100923.16;;;6.27;100.00
47897;BME280;39629;51.400;5.494;2023-04-24T20:13:54;100928.94;;;6.07;100.00
47897;BME280;39629;51.400;5.494;2023-04-24T20:18:56;100927.91;;;5.97;100.00
47897;BME280;39629;51.400;5.494;2023-04-24T20:23:59;100931.28;;;5.92;100.00
47897;BME280;39629;51.400;5.494;2023-04-24T20:29:00;100927.59;;;5.79;100.00
47897;BME280;39629;51.400;5.494;2023-04-24T20:34:02;100921.41;;;5.74;100.00
47897;BME280;39629;51.400;5.494;2023-04-24T20:39:06;100922.97;;;5.64;100.00
47897;BME280;39629;51.400;5.494;2023-04-24T20:44:08;100932.38;;;5.56;100.00
47897;BME280;39629;51.400;5.494;2023-04-24T20:49:10;100930.41;;;5.44;100.00
47897;BME280;39629;51.400;5.494;2023-04-24T20:54:13;100940.69;;;5.35;100.00
47897;BME280;39629;51.400;5.494;2023-04-24T20:59:15;100937.91;;;5.27;100.00
47897;BME280;39629;51.400;5.494;2023-04-24T21:04:17;100926.34;;;5.14;100.00
47897;BME280;39629;51.400;5.494;2023-04-24T21:09:20;100928.72;;;5.03;100.00
47897;BME280;39629;51.400;5.494;2023-04-24T21:14:21;100926.78;;;4.93;100.00
47897;BME280;39629;51.400;5.494;2023-04-24T21:19:23;100922.19;;;4.83;100.00
47897;BME280;39629;51.400;5.494;2023-04-24T21:24:26;100922.88;;;4.74;100.00
47897;BME280;39629;51.400;5.494;2023-04-24T21:29:27;100927.06;;;4.67;100.00
47897;BME280;39629;51.400;5.494;2023-04-24T21:34:29;100923.09;;;4.45;100.00
47897;BME280;39629;51.400;5.494;2023-04-24T21:39:32;100921.38;;;4.46;100.00
47897;BME280;39629;51.400;5.494;2023-04-24T21:44:33;100927.13;;;4.32;100.00
47897;BME280;39629;51.400;5.494;2023-04-24T21:49:35;100927.88;;;4.27;100.00
47897;BME280;39629;51.400;5.494;2023-04-24T21:54:38;100920.06;;;4.27;100.00
47897;BME280;39629;51.400;5.494;2023-04-24T21:59:39;100919.72;;;4.13;100.00
47897;BME280;39629;51.400;5.494;2023-04-24T22:04:41;100924.75;;;4.06;100.00
47897;BME280;39629;51.400;5.494;2023-04-24T22:09:44;100923.84;;;4.04;100.00
47897;BME280;39629;51.400;5.494;2023-04-24T22:14:45;100919.84;;;4.19;100.00
47897;BME280;39629;51.400;5.494;2023-04-24T22:19:47;100921.75;;;4.26;100.00
47897;BME280;39629;51.400;5.494;2023-04-24T22:24:50;100928.97;;;4.36;100.00
47897;BME280;39629;51.400;5.494;2023-04-24T22:29:51;100924.41;;;4.66;100.00
47897;BME280;39629;51.400;5.494;2023-04-24T22:34:53;100928.84;;;4.68;100.00
47897;BME280;39629;51.400;5.494;2023-04-24T22:39:56;100934.09;;;4.71;100.00
47897;BME280;39629;51.400;5.494;2023-04-24T22:44:59;100932.63;;;4.83;100.00
47897;BME280;39629;51.400;5.494;2023-04-24T22:50:00;100932.69;;;4.86;100.00
47897;BME280;39629;51.400;5.494;2023-04-24T22:55:04;100931.72;;;4.81;100.00
47897;BME280;39629;51.400;5.494;2023-04-24T23:00:07;100923.66;;;4.70;100.00
47897;BME280;39629;51.400;5.494;2023-04-24T23:05:10;100930.47;;;4.65;100.00
47897;BME280;39629;51.400;5.494;2023-04-24T23:10:13;100931.22;;;4.59;100.00
47897;BME280;39629;51.400;5.494;2023-04-24T23:15:14;100929.50;;;4.59;100.00
47897;BME280;39629;51.400;5.494;2023-04-24T23:20:16;100933.06;;;4.63;100.00
47897;BME280;39629;51.400;5.494;2023-04-24T23:25:19;100934.97;;;4.72;100.00
47897;BME280;39629;51.400;5.494;2023-04-24T23:30:21;100943.06;;;4.84;100.00
47897;BME280;39629;51.400;5.494;2023-04-24T23:35:22;100958.88;;;4.90;100.00
47897;BME280;39629;51.400;5.494;2023-04-24T23:40:26;100959.00;;;4.97;100.00
47897;BME280;39629;51.400;5.494;2023-04-24T23:45:28;100954.81;;;5.03;100.00
47897;BME280;39629;51.400;5.494;2023-04-24T23:50:29;100956.56;;;5.04;100.00
47897;BME280;39629;51.400;5.494;2023-04-24T23:55:32;100952.28;;;5.08;100.00
